createdAt,value
2023-05-12T00:01:39.452Z,14.92
2023-05-12T00:04:07.496Z,14.93
2023-05-12T00:06:35.237Z,14.92
2023-05-12T00:09:02.928Z,14.85
2023-05-12T00:11:30.618Z,14.76
2023-05-12T00:13:59.608Z,14.72
2023-05-12T00:16:28.195Z,14.75
2023-05-12T00:18:56.112Z,14.78
2023-05-12T00:21:24.102Z,14.81
2023-05-12T00:23:51.760Z,14.82
2023-05-12T00:26:19.432Z,14.86
2023-05-12T00:28:47.622Z,14.85
2023-05-12T00:31:17.005Z,14.83
2023-05-12T00:33:44.692Z,14.83
2023-05-12T00:36:12.525Z,14.85
2023-05-12T00:38:41.230Z,14.85
2023-05-12T00:41:09.001Z,14.86
2023-05-12T00:43:37.138Z,14.82
2023-05-12T00:46:07.186Z,14.83
2023-05-12T00:48:36.981Z,14.86
2023-05-12T00:51:06.148Z,14.87
2023-05-12T00:53:47.712Z,14.88
2023-05-12T00:56:19.703Z,14.88
2023-05-12T00:58:47.680Z,14.88
2023-05-12T01:01:15.907Z,14.87
2023-05-12T01:03:45.302Z,14.80
2023-05-12T01:06:16.593Z,14.79
2023-05-12T01:08:44.967Z,14.77
2023-05-12T01:11:12.563Z,14.76
2023-05-12T01:13:41.152Z,14.76
2023-05-12T01:16:10.648Z,14.76
2023-05-12T01:18:39.651Z,14.74
2023-05-12T01:21:09.595Z,14.76
2023-05-12T01:23:40.998Z,14.76
2023-05-12T01:26:10.912Z,14.80
2023-05-12T01:28:41.040Z,14.82
2023-05-12T01:31:09.756Z,14.81
2023-05-12T01:33:37.796Z,14.79
2023-05-12T01:36:06.246Z,14.77
2023-05-12T01:38:33.956Z,14.70
2023-05-12T01:41:02.120Z,14.69
2023-05-12T01:43:31.119Z,14.68
2023-05-12T01:45:58.973Z,14.71
2023-05-12T01:48:26.945Z,14.71
2023-05-12T01:50:54.805Z,14.75
2023-05-12T01:53:22.450Z,14.72
2023-05-12T01:55:50.108Z,14.71
2023-05-12T01:58:19.418Z,14.70
2023-05-12T02:00:48.404Z,14.65
2023-05-12T02:03:16.471Z,14.58
2023-05-12T02:05:44.289Z,14.57
2023-05-12T02:08:12.047Z,14.57
2023-05-12T02:10:39.728Z,14.59
2023-05-12T02:13:07.316Z,14.61
2023-05-12T02:15:35.038Z,14.62
2023-05-12T02:18:04.505Z,14.63
2023-05-12T02:20:32.273Z,14.64
2023-05-12T02:23:00.835Z,14.66
2023-05-12T02:25:28.534Z,14.64
2023-05-12T02:27:56.180Z,14.64
2023-05-12T02:30:23.794Z,14.61
2023-05-12T02:32:51.474Z,14.59
2023-05-12T02:35:21.309Z,14.53
2023-05-12T02:37:49.026Z,14.54
2023-05-12T02:40:17.154Z,14.58
2023-05-12T02:42:45.509Z,14.57
2023-05-12T02:45:13.775Z,14.53
2023-05-12T02:47:41.657Z,14.49
2023-05-12T02:50:10.253Z,14.44
2023-05-12T02:52:39.244Z,14.44
2023-05-12T02:55:07.772Z,14.44
2023-05-12T02:57:35.823Z,14.43
2023-05-12T03:00:05.861Z,14.38
2023-05-12T03:02:34.153Z,14.32
2023-05-12T03:05:02.099Z,14.32
2023-05-12T03:07:30.325Z,14.34
2023-05-12T03:10:00.060Z,14.37
2023-05-12T03:12:29.257Z,14.41
2023-05-12T03:14:56.900Z,14.43
2023-05-12T03:17:24.735Z,14.45
2023-05-12T03:19:52.345Z,14.46
2023-05-12T03:22:20.138Z,14.37
2023-05-12T03:24:47.959Z,14.35
2023-05-12T03:27:16.905Z,14.41
2023-05-12T03:29:44.533Z,14.44
2023-05-12T03:32:12.322Z,14.47
2023-05-12T03:34:40.036Z,14.46
2023-05-12T03:37:07.887Z,14.48
2023-05-12T03:39:35.649Z,14.46
2023-05-12T03:42:03.392Z,14.44
2023-05-12T03:44:32.305Z,14.47
2023-05-12T03:47:00.102Z,14.47
2023-05-12T03:49:27.807Z,14.51
2023-05-12T03:51:55.579Z,14.52
2023-05-12T03:54:23.293Z,14.52
2023-05-12T03:56:50.999Z,14.53
2023-05-12T03:59:18.662Z,14.52
2023-05-12T04:01:47.723Z,14.46
2023-05-12T04:04:15.770Z,14.44
2023-05-12T04:06:43.568Z,14.45
2023-05-12T04:09:13.226Z,14.46
2023-05-12T04:11:40.906Z,14.50
2023-05-12T04:14:08.633Z,14.58
2023-05-12T04:16:36.800Z,14.64
2023-05-12T04:19:05.841Z,14.72
2023-05-12T04:21:33.581Z,14.76
2023-05-12T04:24:01.279Z,14.77
2023-05-12T04:26:28.996Z,14.69
2023-05-12T04:28:56.754Z,14.62
2023-05-12T04:31:24.395Z,14.62
2023-05-12T04:33:52.099Z,14.57
2023-05-12T04:36:21.160Z,14.59
2023-05-12T04:38:49.132Z,14.58
2023-05-12T04:41:17.048Z,14.58
2023-05-12T04:46:15.512Z,14.50
2023-05-12T04:48:43.579Z,14.53
2023-05-12T04:51:11.539Z,14.54
2023-05-12T04:53:40.997Z,14.45
2023-05-12T04:56:08.923Z,14.48
2023-05-12T04:58:36.882Z,14.54
2023-05-12T05:01:05.075Z,14.50
2023-05-12T05:03:33.009Z,14.53
2023-05-12T05:06:00.816Z,14.52
2023-05-12T05:08:28.536Z,14.52
2023-05-12T05:10:57.533Z,14.49
2023-05-12T05:13:25.202Z,14.55
2023-05-12T05:15:53.390Z,14.62
2023-05-12T05:18:24.058Z,14.63
2023-05-12T05:20:57.852Z,14.66
2023-05-12T05:23:26.642Z,14.71
2023-05-12T05:25:54.426Z,14.70
2023-05-12T05:28:23.484Z,14.70
2023-05-12T05:30:51.235Z,14.65
2023-05-12T05:33:18.816Z,14.71
2023-05-12T05:35:48.012Z,14.73
2023-05-12T05:38:15.753Z,14.69
2023-05-12T05:40:53.170Z,14.66
2023-05-12T05:43:23.075Z,14.70
2023-05-12T05:45:51.310Z,14.75
2023-05-12T05:48:19.285Z,14.80
2023-05-12T05:50:47.078Z,14.85
2023-05-12T05:53:14.775Z,14.89
2023-05-12T05:55:42.428Z,14.95
2023-05-12T05:58:10.251Z,14.96
2023-05-12T06:00:39.448Z,14.97
2023-05-12T06:03:07.460Z,14.99
2023-05-12T06:05:35.283Z,15.02
2023-05-12T06:08:02.999Z,15.04
2023-05-12T06:10:30.736Z,15.05
2023-05-12T06:12:58.439Z,15.09
2023-05-12T06:15:26.027Z,15.15
2023-05-12T06:17:55.165Z,15.15
2023-05-12T06:20:23.427Z,15.14
2023-05-12T06:22:51.176Z,15.15
2023-05-12T06:25:19.224Z,15.10
2023-05-12T06:27:47.113Z,15.08
2023-05-12T06:30:16.396Z,15.09
2023-05-12T06:32:44.280Z,15.09
2023-05-12T06:35:13.463Z,14.99
2023-05-12T06:37:41.074Z,14.95
2023-05-12T06:40:09.539Z,14.98
2023-05-12T06:42:37.299Z,15.02
2023-05-12T06:45:05.699Z,15.06
2023-05-12T06:47:33.657Z,15.02
2023-05-12T06:50:01.759Z,15.03
2023-05-12T06:52:30.720Z,14.96
2023-05-12T06:54:58.560Z,14.95
2023-05-12T06:57:26.339Z,14.93
2023-05-12T06:59:54.049Z,14.98
2023-05-12T07:02:21.946Z,15.06
2023-05-12T07:04:49.735Z,15.10
2023-05-12T07:07:17.314Z,15.14
2023-05-12T07:09:46.296Z,15.20
2023-05-12T07:12:13.929Z,15.15
2023-05-12T07:14:41.536Z,15.12
2023-05-12T07:17:09.135Z,15.16
2023-05-12T07:19:37.076Z,15.20
2023-05-12T07:22:05.011Z,15.26
2023-05-12T07:24:32.654Z,15.31
2023-05-12T07:27:02.531Z,15.37
2023-05-12T07:29:30.198Z,15.38
2023-05-12T07:31:57.875Z,15.41
2023-05-12T07:34:25.764Z,15.46
2023-05-12T07:36:53.621Z,15.54
2023-05-12T07:39:23.575Z,15.59
2023-05-12T07:41:53.510Z,15.62
2023-05-12T07:44:22.546Z,15.63
2023-05-12T07:46:50.575Z,15.64
2023-05-12T07:49:18.244Z,15.70
2023-05-12T07:51:45.934Z,15.73
2023-05-12T07:54:13.696Z,15.81
2023-05-12T07:56:41.425Z,15.90
2023-05-12T07:59:09.131Z,15.99
2023-05-12T08:01:38.216Z,16.05
2023-05-12T08:04:06.693Z,16.13
2023-05-12T08:06:34.427Z,16.20
2023-05-12T08:09:02.044Z,16.11
2023-05-12T08:11:29.858Z,16.14
2023-05-12T08:13:57.454Z,16.21
2023-05-12T08:16:25.101Z,16.27
2023-05-12T08:18:54.461Z,16.29
2023-05-12T08:21:22.253Z,16.33
2023-05-12T08:23:49.862Z,16.35
2023-05-12T08:26:17.455Z,16.44
2023-05-12T08:28:45.009Z,16.47
2023-05-12T08:31:13.104Z,16.38
2023-05-12T08:33:40.815Z,16.49
2023-05-12T08:36:09.930Z,16.51
2023-05-12T08:38:37.720Z,16.59
2023-05-12T08:41:13.372Z,16.70
2023-05-12T08:43:45.174Z,16.77
2023-05-12T08:46:12.962Z,16.76
2023-05-12T08:48:41.488Z,16.81
2023-05-12T08:51:12.826Z,16.86
2023-05-12T08:53:42.415Z,16.92
2023-05-12T08:58:43.709Z,17.01
2023-05-12T09:01:14.666Z,17.03
2023-05-12T09:03:44.218Z,17.09
2023-05-12T09:06:14.899Z,17.09
2023-05-12T09:08:42.878Z,17.15
2023-05-12T09:11:13.329Z,17.26
2023-05-12T09:13:49.618Z,17.37
2023-05-12T09:16:20.496Z,17.42
2023-05-12T09:18:51.483Z,17.42
2023-05-12T09:21:20.788Z,17.52
2023-05-12T09:23:59.497Z,17.56
2023-05-12T09:26:28.815Z,17.56
2023-05-12T09:29:06.260Z,17.60
2023-05-12T09:31:34.160Z,17.64
2023-05-12T09:34:02.413Z,17.63
2023-05-12T09:36:35.332Z,17.70
2023-05-12T09:39:05.306Z,17.77
2023-05-12T09:41:36.126Z,17.81
2023-05-12T09:44:04.739Z,17.92
2023-05-12T09:46:32.589Z,18.01
2023-05-12T09:49:01.069Z,18.10
2023-05-12T09:51:29.200Z,18.15
2023-05-12T09:53:58.300Z,18.18
2023-05-12T09:56:28.878Z,18.22
2023-05-12T09:58:57.931Z,18.21
2023-05-12T10:01:26.379Z,18.26
2023-05-12T10:03:55.830Z,18.31
2023-05-12T10:06:28.081Z,18.37
2023-05-12T10:09:05.185Z,18.67
2023-05-12T10:11:36.698Z,18.71
2023-05-12T10:14:06.582Z,18.76
2023-05-12T10:16:34.711Z,18.89
2023-05-12T10:19:04.329Z,18.88
2023-05-12T10:21:32.721Z,18.93
2023-05-12T10:24:05.952Z,18.94
2023-05-12T10:26:34.893Z,18.91
2023-05-12T10:29:03.245Z,18.94
2023-05-12T10:31:33.752Z,19.10
2023-05-12T10:34:03.355Z,19.15
2023-05-12T10:36:31.458Z,19.19
2023-05-12T10:39:07.071Z,19.23
2023-05-12T10:41:36.177Z,19.26
2023-05-12T10:44:03.763Z,19.22
2023-05-12T10:46:31.644Z,19.27
2023-05-12T10:49:00.954Z,19.41
2023-05-12T10:51:30.338Z,19.42
2023-05-12T10:53:59.356Z,19.51
2023-05-12T10:56:30.516Z,19.50
2023-05-12T10:59:17.387Z,19.51
2023-05-12T11:02:03.109Z,19.56
2023-05-12T11:04:41.647Z,19.59
2023-05-12T11:07:11.712Z,19.67
2023-05-12T11:09:53.094Z,19.63
2023-05-12T11:12:27.631Z,19.71
2023-05-12T11:14:55.588Z,19.80
2023-05-12T11:17:23.340Z,19.89
2023-05-12T11:19:52.453Z,19.92
2023-05-12T11:22:22.460Z,20.01
2023-05-12T11:24:52.381Z,20.05
2023-05-12T11:27:22.475Z,20.09
2023-05-12T11:29:58.332Z,20.18
2023-05-12T11:32:26.260Z,20.12
2023-05-12T11:34:54.103Z,20.19
2023-05-12T11:37:21.854Z,20.27
2023-05-12T11:39:50.028Z,20.45
2023-05-12T11:42:19.704Z,20.53
2023-05-12T11:44:50.096Z,20.74
2023-05-12T11:47:22.138Z,20.83
2023-05-12T11:49:53.116Z,20.89
2023-05-12T11:52:24.891Z,20.96
2023-05-12T11:54:54.075Z,21.04
2023-05-12T11:57:28.285Z,21.13
2023-05-12T12:00:01.787Z,21.30
2023-05-12T12:02:32.613Z,21.47
2023-05-12T12:05:00.767Z,21.83
2023-05-12T12:07:32.422Z,21.97
2023-05-12T12:10:03.432Z,21.62
2023-05-12T12:12:31.267Z,21.35
2023-05-12T12:15:00.257Z,21.16
2023-05-12T12:17:30.959Z,20.99
2023-05-12T12:20:00.260Z,20.83
2023-05-12T12:22:32.500Z,20.76
2023-05-12T12:25:01.636Z,20.72
2023-05-12T12:27:29.495Z,20.71
2023-05-12T12:29:57.701Z,20.68
2023-05-12T12:32:26.039Z,20.88
2023-05-12T12:34:53.733Z,21.47
2023-05-12T12:37:22.714Z,21.91
2023-05-12T12:39:50.353Z,21.73
2023-05-12T12:42:18.106Z,21.42
2023-05-12T12:44:50.150Z,21.37
2023-05-12T12:47:19.035Z,21.26
2023-05-12T12:49:46.812Z,21.24
2023-05-12T12:52:14.708Z,21.20
2023-05-12T12:54:43.781Z,21.13
2023-05-12T12:57:11.404Z,21.10
2023-05-12T12:59:39.075Z,21.11
2023-05-12T13:02:07.069Z,21.29
2023-05-12T13:04:34.802Z,21.75
2023-05-12T13:07:02.533Z,22.11
2023-05-12T13:09:30.567Z,22.36
2023-05-12T13:12:00.927Z,22.59
2023-05-12T13:14:28.856Z,22.82
2023-05-12T13:16:56.551Z,22.71
2023-05-12T13:19:24.226Z,22.48
2023-05-12T13:21:52.136Z,22.03
2023-05-12T13:24:19.817Z,21.75
2023-05-12T13:26:47.497Z,21.60
2023-05-12T13:29:16.623Z,21.53
2023-05-12T13:31:45.760Z,21.46
2023-05-12T13:34:13.957Z,21.92
2023-05-12T13:36:41.943Z,22.17
2023-05-12T13:39:10.118Z,22.39
2023-05-12T13:41:37.917Z,22.62
2023-05-12T13:44:06.240Z,22.95
2023-05-12T13:46:35.572Z,23.08
2023-05-12T13:49:03.580Z,23.11
2023-05-12T13:51:32.380Z,23.28
2023-05-12T13:54:00.222Z,23.20
2023-05-12T13:56:27.809Z,23.05
2023-05-12T13:58:55.583Z,22.81
2023-05-12T14:01:23.306Z,22.70
2023-05-12T14:03:52.540Z,22.49
2023-05-12T14:06:20.209Z,22.35
2023-05-12T14:08:48.263Z,22.29
2023-05-12T14:11:16.736Z,22.18
2023-05-12T14:13:44.462Z,22.54
2023-05-12T14:16:13.930Z,22.95
2023-05-12T14:18:43.356Z,23.31
2023-05-12T14:21:12.905Z,23.48
2023-05-12T14:23:40.506Z,23.76
2023-05-12T14:26:08.172Z,24.06
2023-05-12T14:28:36.020Z,24.09
2023-05-12T14:31:03.871Z,23.58
2023-05-12T14:33:32.266Z,23.24
2023-05-12T14:36:07.168Z,22.77
2023-05-12T14:38:37.862Z,22.62
2023-05-12T14:41:08.078Z,22.64
2023-05-12T14:43:35.865Z,23.13
2023-05-12T14:46:04.383Z,23.24
2023-05-12T14:48:32.261Z,23.69
2023-05-12T14:51:00.296Z,23.99
2023-05-12T14:53:27.971Z,24.15
2023-05-12T14:55:56.955Z,24.56
2023-05-12T14:58:24.954Z,24.64
2023-05-12T15:00:54.307Z,24.69
2023-05-12T15:03:22.389Z,24.71
2023-05-12T15:08:21.577Z,23.98
2023-05-12T15:10:49.790Z,23.65
2023-05-12T15:13:20.373Z,23.56
2023-05-12T15:15:48.329Z,23.33
2023-05-12T15:18:16.283Z,23.28
2023-05-12T15:20:43.950Z,23.58
2023-05-12T15:23:11.562Z,23.77
2023-05-12T15:25:40.158Z,23.45
2023-05-12T15:28:08.310Z,23.09
2023-05-12T15:30:37.322Z,22.78
2023-05-12T15:33:05.899Z,22.52
2023-05-12T15:35:33.678Z,22.38
2023-05-12T15:38:01.551Z,22.45
2023-05-12T15:40:30.608Z,22.55
2023-05-12T15:42:58.319Z,22.49
2023-05-12T15:45:26.063Z,22.35
2023-05-12T15:47:56.203Z,22.29
2023-05-12T15:50:24.560Z,22.26
2023-05-12T15:52:52.689Z,22.20
2023-05-12T15:55:21.510Z,22.26
2023-05-12T15:57:50.220Z,22.34
2023-05-12T16:00:19.394Z,22.40
2023-05-12T16:02:47.776Z,22.41
2023-05-12T16:05:17.188Z,22.33
2023-05-12T16:07:44.839Z,22.23
2023-05-12T16:10:12.476Z,22.18
2023-05-12T16:12:40.822Z,22.09
2023-05-12T16:15:09.559Z,22.09
2023-05-12T16:17:37.190Z,22.02
2023-05-12T16:20:05.749Z,22.02
2023-05-12T16:22:35.202Z,21.98
2023-05-12T16:25:02.768Z,21.97
2023-05-12T16:27:31.969Z,21.98
2023-05-12T16:29:59.704Z,21.91
2023-05-12T16:32:27.454Z,21.93
2023-05-12T16:34:56.023Z,21.89
2023-05-12T16:37:23.889Z,21.87
2023-05-12T16:39:53.050Z,21.82
2023-05-12T16:42:21.036Z,21.81
2023-05-12T16:44:48.775Z,21.78
2023-05-12T16:47:16.470Z,21.75
2023-05-12T16:49:44.402Z,21.73
2023-05-12T16:52:12.629Z,21.72
2023-05-12T16:54:40.368Z,21.63
2023-05-12T16:57:09.396Z,21.67
2023-05-12T16:59:38.631Z,21.60
2023-05-12T17:02:08.444Z,21.63
2023-05-12T17:04:36.508Z,21.67
2023-05-12T17:07:04.217Z,21.66
2023-05-12T17:09:31.939Z,21.65
2023-05-12T17:11:59.696Z,21.55
2023-05-12T17:14:28.587Z,21.49
2023-05-12T17:16:56.504Z,21.43
2023-05-12T17:19:24.793Z,21.39
2023-05-12T17:21:52.816Z,21.36
2023-05-12T17:24:20.740Z,21.32
2023-05-12T17:29:16.040Z,21.23
2023-05-12T17:31:45.138Z,21.20
2023-05-12T17:34:12.979Z,21.16
2023-05-12T17:36:40.923Z,21.12
2023-05-12T17:39:08.749Z,21.02
2023-05-12T17:41:36.561Z,20.97
2023-05-12T17:44:04.878Z,20.95
2023-05-12T17:46:32.784Z,20.95
2023-05-12T17:49:01.792Z,20.97
2023-05-12T17:51:30.675Z,20.94
2023-05-12T17:53:58.435Z,20.92
2023-05-12T17:56:26.478Z,20.93
2023-05-12T17:58:54.498Z,20.91
2023-05-12T18:01:22.373Z,20.91
2023-05-12T18:03:50.100Z,20.89
2023-05-12T18:06:19.058Z,20.85
2023-05-12T18:08:47.189Z,20.81
2023-05-12T18:11:15.142Z,20.75
2023-05-12T18:13:42.912Z,20.73
2023-05-12T18:16:21.272Z,20.74
2023-05-12T18:18:55.914Z,20.71
2023-05-12T18:21:25.237Z,20.75
2023-05-12T18:23:52.891Z,20.78
2023-05-12T18:26:20.868Z,20.77
2023-05-12T18:28:48.844Z,20.76
2023-05-12T18:31:19.541Z,20.71
2023-05-12T18:33:48.511Z,20.61
2023-05-12T18:36:16.937Z,20.58
2023-05-12T18:38:46.573Z,20.55
2023-05-12T18:41:14.208Z,20.52
2023-05-12T18:43:44.179Z,20.50
2023-05-12T18:46:12.439Z,20.47
2023-05-12T18:48:40.337Z,20.45
2023-05-12T18:51:08.142Z,20.43
2023-05-12T18:53:35.957Z,20.41
2023-05-12T18:56:05.022Z,20.40
2023-05-12T18:58:32.836Z,20.38
2023-05-12T19:01:00.637Z,20.36
2023-05-12T19:03:28.758Z,20.33
2023-05-12T19:05:56.691Z,20.31
2023-05-12T19:08:24.463Z,20.23
2023-05-12T19:10:52.335Z,20.22
2023-05-12T19:13:21.640Z,20.22
2023-05-12T19:15:49.571Z,20.21
2023-05-12T19:18:17.655Z,20.20
2023-05-12T19:20:45.573Z,20.18
2023-05-12T19:23:13.495Z,20.14
2023-05-12T19:25:42.928Z,20.11
2023-05-12T19:28:12.147Z,20.05
2023-05-12T19:30:41.325Z,20.02
2023-05-12T19:33:09.206Z,20.01
2023-05-12T19:35:37.372Z,19.92
2023-05-12T19:38:05.238Z,19.86
2023-05-12T19:40:33.424Z,19.86
2023-05-12T19:43:01.984Z,19.89
2023-05-12T19:45:30.350Z,19.83
2023-05-12T19:48:03.051Z,19.85
2023-05-12T19:50:30.911Z,19.90
2023-05-12T19:52:59.122Z,19.93
2023-05-12T19:55:26.886Z,19.93
2023-05-12T19:57:54.742Z,19.93
2023-05-12T20:00:22.519Z,19.94
2023-05-12T20:02:50.879Z,19.93
2023-05-12T20:05:20.961Z,19.90
2023-05-12T20:07:49.543Z,19.86
2023-05-12T20:10:17.569Z,19.80
2023-05-12T20:12:45.322Z,19.78
2023-05-12T20:15:13.266Z,19.73
2023-05-12T20:17:41.102Z,19.69
2023-05-12T20:20:11.678Z,19.66
2023-05-12T20:22:41.014Z,19.61
2023-05-12T20:25:12.436Z,19.58
2023-05-12T20:27:40.133Z,19.57
2023-05-12T20:30:09.446Z,19.54
2023-05-12T20:32:37.593Z,19.48
2023-05-12T20:35:06.540Z,19.38
2023-05-12T20:37:34.431Z,19.29
2023-05-12T20:40:05.491Z,19.19
2023-05-12T20:42:33.313Z,19.04
2023-05-12T20:45:01.259Z,19.02
2023-05-12T20:47:30.803Z,19.02
2023-05-12T20:50:00.598Z,18.99
2023-05-12T20:52:29.018Z,18.97
2023-05-12T20:54:58.710Z,18.94
2023-05-12T20:57:28.015Z,18.91
2023-05-12T20:59:56.976Z,18.87
2023-05-12T21:02:24.960Z,18.85
2023-05-12T21:04:52.835Z,18.83
2023-05-12T21:07:21.137Z,18.79
2023-05-12T21:09:48.815Z,18.72
2023-05-12T21:12:16.445Z,18.62
2023-05-12T21:14:46.252Z,18.55
2023-05-12T21:17:13.964Z,18.53
2023-05-12T21:19:41.885Z,18.53
2023-05-12T21:22:10.367Z,18.49
2023-05-12T21:24:39.364Z,18.46
2023-05-12T21:27:08.044Z,18.45
2023-05-12T21:29:36.396Z,18.43
2023-05-12T21:32:06.093Z,18.42
2023-05-12T21:34:35.948Z,18.35
2023-05-12T21:37:03.840Z,18.33
2023-05-12T21:39:31.446Z,18.23
2023-05-12T21:41:59.066Z,18.28
2023-05-12T21:44:26.762Z,18.36
2023-05-12T21:46:54.462Z,18.37
2023-05-12T21:49:23.481Z,18.28
2023-05-12T21:51:51.651Z,18.23
2023-05-12T21:54:19.356Z,18.17
2023-05-12T21:56:47.075Z,18.12
2023-05-12T21:59:14.716Z,18.11
2023-05-12T22:01:42.844Z,18.08
2023-05-12T22:04:11.079Z,18.02
2023-05-12T22:06:40.203Z,17.95
2023-05-12T22:09:07.868Z,17.95
2023-05-12T22:11:35.606Z,17.94
2023-05-12T22:14:04.185Z,17.90
2023-05-12T22:16:41.299Z,17.85
2023-05-12T22:19:10.068Z,17.77
2023-05-12T22:21:38.027Z,17.73
2023-05-12T22:24:07.818Z,17.69
2023-05-12T22:26:35.622Z,17.63
2023-05-12T22:29:03.271Z,17.64
2023-05-12T22:31:30.968Z,17.59
2023-05-12T22:33:58.628Z,17.59
2023-05-12T22:36:26.440Z,17.60
2023-05-12T22:38:54.032Z,17.56
2023-05-12T22:41:23.126Z,17.53
2023-05-12T22:43:50.809Z,17.51
2023-05-12T22:46:18.684Z,17.49
2023-05-12T22:48:46.480Z,17.45
2023-05-12T22:51:14.260Z,17.47
2023-05-12T22:53:42.217Z,17.47
2023-05-12T22:56:09.961Z,17.48
2023-05-12T22:58:39.193Z,17.51
2023-05-12T23:01:07.323Z,17.53
2023-05-12T23:03:35.150Z,17.53
2023-05-12T23:06:03.139Z,17.49
2023-05-12T23:08:30.808Z,17.40
2023-05-12T23:10:58.451Z,17.32
2023-05-12T23:13:26.214Z,17.23
2023-05-12T23:15:55.402Z,17.09
2023-05-12T23:18:23.268Z,17.01
2023-05-12T23:20:50.899Z,16.92
2023-05-12T23:23:18.630Z,16.88
2023-05-12T23:25:47.689Z,16.85
2023-05-12T23:28:15.370Z,16.78
2023-05-12T23:30:43.028Z,16.75
2023-05-12T23:33:12.139Z,16.71
2023-05-12T23:35:39.997Z,16.66
2023-05-12T23:38:07.905Z,16.62
2023-05-12T23:40:38.912Z,16.58
2023-05-12T23:43:06.793Z,16.52
2023-05-12T23:45:34.902Z,16.45
2023-05-12T23:48:02.686Z,16.44
2023-05-12T23:50:31.774Z,16.42
2023-05-12T23:52:59.382Z,16.41
2023-05-12T23:55:27.039Z,16.38
2023-05-12T23:57:54.607Z,16.33
